Time;durP1;ratioP1;P1;durP2;ratioP2;P2;SDS_P1;SDS_P2;PMS_P1;PMS_P2;Temp;Humidity;BMP_temperature;BMP_pressure;BME280_temperature;BME280_humidity;BME280_pressure;Samples;Min_cycle;Max_cycle;Signal;HPM_P1;HPM_P2
2024/01/09 00:00:23;;;;;;;;;;;;;;;;;;5064345;28;19925;-65
2024/01/09 00:02:50;;;;;;;;;;;;;;;;;;5065650;28;19929;-65
2024/01/09 00:05:17;;;;;;;;;;;;;;;;;;5063543;28;20451;-65
2024/01/09 00:07:44;;;;;;;;;;;;;;;;;;5060988;28;20429;-65
2024/01/09 00:10:11;;;;;;;;;;;;;;;;;;5062452;28;20013;-65
2024/01/09 00:12:38;;;;;;;;;;;;;;;;;;5065345;28;19986;-66
2024/01/09 00:15:06;;;;;;;;;;;;;;;;;;5065423;28;19978;-65
2024/01/09 00:17:33;;;;;;;;;;;;;;;;;;5069911;28;19924;-65
2024/01/09 00:20:00;;;;;;;;;;;;;;;;;;5067548;28;20020;-66
2024/01/09 00:22:28;;;;;;;;;;;;;;;;;;5064633;28;19940;-66
2024/01/09 00:24:55;;;;;;;;;;;;;;;;;;5067314;28;19924;-65
2024/01/09 00:27:22;;;;;;;;;;;;;;;;;;5073466;28;19959;-65
2024/01/09 00:29:49;;;;;;;;;;;;;;;;;;5071179;28;19940;-65
2024/01/09 00:32:16;;;;;;;;;;;;;;;;;;5066637;28;19932;-66
2024/01/09 00:34:43;;;;;;;;;;;;;;;;;;5064811;28;19943;-66
2024/01/09 00:37:10;;;;;;;;;;;;;;;;;;5063260;28;19937;-65
2024/01/09 00:39:37;;;;;;;;;;;;;;;;;;5068623;28;19928;-65
2024/01/09 00:42:04;;;;;;;;;;;;;;;;;;5066509;28;19956;-65
2024/01/09 00:44:31;;;;;;;;;;;;;;;;;;5063339;28;19931;-65
2024/01/09 00:46:58;;;;;;;;;;;;;;;;;;5066173;28;19925;-66
2024/01/09 00:49:25;;;;;;;;;;;;;;;;;;5063193;28;21996;-66
2024/01/09 00:51:53;;;;;;;;;;;;;;;;;;5062478;28;20468;-66
2024/01/09 00:54:20;;;;;;;;;;;;;;;;;;5063394;28;19986;-65
2024/01/09 00:56:47;;;;;;;;;;;;;;;;;;5069498;28;20449;-66
2024/01/09 00:59:14;;;;;;;;;;;;;;;;;;5069192;28;19932;-66
2024/01/09 01:01:41;;;;;;;;;;;;;;;;;;5063197;28;19925;-66
2024/01/09 01:04:08;;;;;;;;;;;;;;;;;;5070866;28;19928;-65
2024/01/09 01:06:35;;;;;;;;;;;;;;;;;;5068152;28;19925;-66
2024/01/09 01:09:02;;;;;;;;;;;;;;;;;;5066402;28;19954;-65
2024/01/09 01:11:29;;;;;;;;;;;;;;;;;;5061020;28;20015;-65
2024/01/09 01:13:56;;;;;;;;;;;;;;;;;;5064483;28;19978;-66
2024/01/09 01:16:23;;;;;;;;;;;;;;;;;;5064100;28;19955;-65
2024/01/09 01:18:50;;;;;;;;;;;;;;;;;;5064940;28;19932;-65
2024/01/09 01:21:18;;;;;;;;;;;;;;;;;;5068719;28;19932;-65
2024/01/09 01:23:45;;;;;;;;;;;;;;;;;;5065232;28;19924;-65
2024/01/09 01:26:12;;;;;;;;;;;;;;;;;;5068695;28;19924;-65
2024/01/09 01:28:39;;;;;;;;;;;;;;;;;;5071926;28;20386;-66
2024/01/09 01:31:06;;;;;;;;;;;;;;;;;;5071442;28;19931;-66
2024/01/09 01:33:33;;;;;;;;;;;;;;;;;;5065157;28;19924;-66
2024/01/09 01:36:00;;;;;;;;;;;;;;;;;;5067301;28;19991;-66
2024/01/09 01:38:27;;;;;;;;;;;;;;;;;;5064138;28;19932;-66
2024/01/09 01:40:54;;;;;;;;;;;;;;;;;;5062445;28;20062;-66
2024/01/09 01:43:21;;;;;;;;;;;;;;;;;;5065489;28;19931;-66
2024/01/09 01:45:48;;;;;;;;;;;;;;;;;;5065164;28;19967;-66
2024/01/09 01:48:16;;;;;;;;;;;;;;;;;;5062864;28;19928;-66
2024/01/09 01:50:43;;;;;;;;;;;;;;;;;;5063809;28;19928;-66
2024/01/09 01:53:10;;;;;;;;;;;;;;;;;;5063926;28;19925;-66
2024/01/09 01:55:37;;;;;;;;;;;;;;;;;;5061700;28;20019;-66
2024/01/09 01:58:04;;;;;;;;;;;;;;;;;;5065093;28;20350;-65
2024/01/09 02:00:31;;;;;;;;;;;;;;;;;;5064607;28;19924;-67
2024/01/09 02:02:58;;;;;;;;;;;;;;;;;;5064817;28;19928;-66
2024/01/09 02:05:25;;;;;;;;;;;;;;;;;;5066320;28;19924;-68
2024/01/09 02:07:53;;;;;;;;;;;;;;;;;;5061342;28;19932;-67
2024/01/09 02:10:20;;;;;;;;;;;;;;;;;;5065181;28;19932;-66
2024/01/09 02:12:47;;;;;;;;;;;;;;;;;;5063964;28;19976;-65
2024/01/09 02:15:14;;;;;;;;;;;;;;;;;;5066760;28;19929;-66
2024/01/09 02:17:41;;;;;;;;;;;;;;;;;;5062039;28;19928;-65
2024/01/09 02:20:08;;;;;;;;;;;;;;;;;;5063560;28;19948;-66
2024/01/09 02:22:35;;;;;;;;;;;;;;;;;;5062476;28;19925;-66
2024/01/09 02:25:02;;;;;;;;;;;;;;;;;;5064623;28;19924;-66
2024/01/09 02:27:30;;;;;;;;;;;;;;;;;;5072013;28;19925;-66
2024/01/09 02:29:57;;;;;;;;;;;;;;;;;;5070131;28;20419;-66
2024/01/09 02:32:24;;;;;;;;;;;;;;;;;;5070426;28;19978;-66
2024/01/09 02:34:51;;;;;;;;;;;;;;;;;;5071423;28;19924;-66
2024/01/09 02:37:18;;;;;;;;;;;;;;;;;;5067060;28;19935;-67
2024/01/09 02:39:45;;;;;;;;;;;;;;;;;;5063543;28;19931;-66
2024/01/09 02:42:13;;;;;;;;;;;;;;;;;;5063453;28;20437;-66
2024/01/09 02:44:40;;;;;;;;;;;;;;;;;;5066879;28;19970;-65
2024/01/09 02:47:07;;;;;;;;;;;;;;;;;;5063521;28;19948;-66
2024/01/09 02:49:34;;;;;;;;;;;;;;;;;;5065059;28;19935;-65
2024/01/09 02:52:01;;;;;;;;;;;;;;;;;;5065525;28;19940;-65
2024/01/09 02:54:28;;;;;;;;;;;;;;;;;;5059892;28;20402;-65
2024/01/09 02:56:55;;;;;;;;;;;;;;;;;;5067435;28;19928;-66
2024/01/09 02:59:23;;;;;;;;;;;;;;;;;;5068904;28;19971;-66
2024/01/09 03:01:51;;;;;;;;;;;;;;;;;;5067519;28;19978;-66
2024/01/09 03:04:18;;;;;;;;;;;;;;;;;;5070810;28;19931;-66
2024/01/09 03:06:45;;;;;;;;;;;;;;;;;;5063129;28;19931;-66
2024/01/09 03:09:12;;;;;;;;;;;;;;;;;;5068973;28;19924;-66
2024/01/09 03:11:39;;;;;;;;;;;;;;;;;;5069120;28;19978;-65
2024/01/09 03:14:06;;;;;;;;;;;;;;;;;;5067039;28;19924;-66
2024/01/09 03:16:33;;;;;;;;;;;;;;;;;;5061499;28;19994;-65
2024/01/09 03:19:00;;;;;;;;;;;;;;;;;;5064343;28;19978;-65
2024/01/09 03:21:27;;;;;;;;;;;;;;;;;;5068415;28;19929;-65
2024/01/09 03:23:54;;;;;;;;;;;;;;;;;;5069669;28;20022;-65
2024/01/09 03:26:21;;;;;;;;;;;;;;;;;;5071819;28;20295;-65
2024/01/09 03:28:49;;;;;;;;;;;;;;;;;;5074449;28;19971;-65
2024/01/09 03:31:16;;;;;;;;;;;;;;;;;;5069971;28;19947;-65
2024/01/09 03:33:43;;;;;;;;;;;;;;;;;;5072015;28;20387;-65
2024/01/09 03:36:10;;;;;;;;;;;;;;;;;;5071325;28;20347;-65
2024/01/09 03:38:37;;;;;;;;;;;;;;;;;;5073683;28;19932;-65
2024/01/09 03:41:04;;;;;;;;;;;;;;;;;;5068059;28;19928;-65
2024/01/09 03:43:31;;;;;;;;;;;;;;;;;;5070597;28;19924;-66
2024/01/09 03:45:58;;;;;;;;;;;;;;;;;;5071835;28;19932;-65
2024/01/09 03:48:25;;;;;;;;;;;;;;;;;;5057360;28;20524;-65
2024/01/09 03:50:52;;;;;;;;;;;;;;;;;;5063946;28;19928;-66
2024/01/09 03:53:19;;;;;;;;;;;;;;;;;;5067907;28;19925;-65
2024/01/09 03:55:46;;;;;;;;;;;;;;;;;;5064870;28;19924;-65
2024/01/09 03:58:13;;;;;;;;;;;;;;;;;;5055494;28;20459;-66
2024/01/09 04:00:41;;;;;;;;;;;;;;;;;;5071420;28;19924;-66
2024/01/09 04:03:08;;;;;;;;;;;;;;;;;;5071949;28;19989;-65
2024/01/09 04:05:35;;;;;;;;;;;;;;;;;;5068613;28;20291;-66
2024/01/09 04:08:02;;;;;;;;;;;;;;;;;;5072716;28;20346;-67
2024/01/09 04:10:30;;;;;;;;;;;;;;;;;;5072999;28;19924;-66
2024/01/09 04:12:57;;;;;;;;;;;;;;;;;;5072540;28;19967;-65
2024/01/09 04:15:24;;;;;;;;;;;;;;;;;;5072816;28;19926;-65
2024/01/09 04:17:51;;;;;;;;;;;;;;;;;;5068697;28;19951;-65
2024/01/09 04:20:18;;;;;;;;;;;;;;;;;;5071984;28;19924;-65
2024/01/09 04:22:45;;;;;;;;;;;;;;;;;;5072031;28;19977;-65
2024/01/09 04:25:13;;;;;;;;;;;;;;;;;;5062000;28;19924;-65
2024/01/09 04:27:40;;;;;;;;;;;;;;;;;;5071581;28;20011;-65
2024/01/09 04:30:07;;;;;;;;;;;;;;;;;;5071453;28;20022;-66
2024/01/09 04:32:34;;;;;;;;;;;;;;;;;;5070066;28;19963;-66
2024/01/09 04:35:01;;;;;;;;;;;;;;;;;;5067924;28;19924;-66
2024/01/09 04:37:28;;;;;;;;;;;;;;;;;;5070477;28;19925;-65
2024/01/09 04:39:55;;;;;;;;;;;;;;;;;;5072276;28;19971;-65
2024/01/09 04:42:22;;;;;;;;;;;;;;;;;;5069630;28;20019;-65
2024/01/09 04:44:49;;;;;;;;;;;;;;;;;;5067452;28;19967;-65
2024/01/09 04:47:16;;;;;;;;;;;;;;;;;;5063534;28;19931;-65
2024/01/09 04:49:43;;;;;;;;;;;;;;;;;;5072022;28;19947;-66
2024/01/09 04:52:10;;;;;;;;;;;;;;;;;;5068284;28;19932;-66
2024/01/09 04:54:37;;;;;;;;;;;;;;;;;;5069576;28;19924;-66
2024/01/09 04:57:04;;;;;;;;;;;;;;;;;;5072627;28;20285;-65
2024/01/09 04:59:32;;;;;;;;;;;;;;;;;;5069895;28;19943;-66
2024/01/09 05:02:01;;;;;;;;;;;;;;;;;;5070984;28;19936;-65
2024/01/09 05:04:28;;;;;;;;;;;;;;;;;;5071538;28;19932;-66
2024/01/09 05:06:55;;;;;;;;;;;;;;;;;;5072744;28;20457;-65
2024/01/09 05:09:23;;;;;;;;;;;;;;;;;;5070188;28;20282;-66
2024/01/09 05:11:50;;;;;;;;;;;;;;;;;;5067546;28;19931;-65
2024/01/09 05:14:17;;;;;;;;;;;;;;;;;;5071682;28;19924;-65
2024/01/09 05:16:44;;;;;;;;;;;;;;;;;;5071837;28;20290;-66
2024/01/09 05:19:11;;;;;;;;;;;;;;;;;;5068490;28;19932;-67
2024/01/09 05:21:38;;;;;;;;;;;;;;;;;;5071989;28;19994;-66
2024/01/09 05:24:05;;;;;;;;;;;;;;;;;;5065126;28;19961;-66
2024/01/09 05:26:32;;;;;;;;;;;;;;;;;;5067370;28;19972;-65
2024/01/09 05:29:00;;;;;;;;;;;;;;;;;;5064405;28;19928;-66
2024/01/09 05:31:27;;;;;;;;;;;;;;;;;;5063847;28;20008;-67
2024/01/09 05:33:54;;;;;;;;;;;;;;;;;;5062810;28;19931;-66
2024/01/09 05:36:22;;;;;;;;;;;;;;;;;;5062356;28;19946;-66
2024/01/09 05:38:49;;;;;;;;;;;;;;;;;;5066631;28;19924;-66
2024/01/09 05:41:16;;;;;;;;;;;;;;;;;;5060291;28;19924;-66
2024/01/09 05:43:43;;;;;;;;;;;;;;;;;;5062921;28;20394;-66
2024/01/09 05:46:10;;;;;;;;;;;;;;;;;;5068105;28;19924;-66
2024/01/09 05:48:37;;;;;;;;;;;;;;;;;;5070663;28;19924;-67
2024/01/09 05:51:04;;;;;;;;;;;;;;;;;;5067064;28;20338;-65
2024/01/09 05:53:31;;;;;;;;;;;;;;;;;;5068757;28;20325;-66
2024/01/09 05:55:59;;;;;;;;;;;;;;;;;;5070044;28;19928;-67
2024/01/09 05:58:26;;;;;;;;;;;;;;;;;;5069716;28;19924;-66
2024/01/09 06:00:53;;;;;;;;;;;;;;;;;;5068305;28;19935;-67
2024/01/09 06:03:20;;;;;;;;;;;;;;;;;;5067507;28;20395;-66
2024/01/09 06:05:47;;;;;;;;;;;;;;;;;;5071573;28;19924;-66
2024/01/09 06:08:14;;;;;;;;;;;;;;;;;;5070249;28;19924;-66
2024/01/09 06:10:41;;;;;;;;;;;;;;;;;;5071135;28;19932;-66
2024/01/09 06:13:08;;;;;;;;;;;;;;;;;;5069675;28;19928;-66
2024/01/09 06:15:35;;;;;;;;;;;;;;;;;;5070073;28;19971;-67
2024/01/09 06:18:02;;;;;;;;;;;;;;;;;;5069819;28;19925;-66
2024/01/09 06:20:29;;;;;;;;;;;;;;;;;;5069041;28;19932;-67
2024/01/09 06:22:56;;;;;;;;;;;;;;;;;;5069966;28;19928;-67
2024/01/09 06:25:23;;;;;;;;;;;;;;;;;;5068133;28;20026;-66
2024/01/09 06:27:51;;;;;;;;;;;;;;;;;;5068266;28;19985;-68
2024/01/09 06:30:18;;;;;;;;;;;;;;;;;;5065491;28;20368;-66
2024/01/09 06:32:45;;;;;;;;;;;;;;;;;;5070078;28;19928;-66
2024/01/09 06:35:12;;;;;;;;;;;;;;;;;;5069693;28;19985;-66
2024/01/09 06:37:39;;;;;;;;;;;;;;;;;;5069000;28;19931;-66
2024/01/09 06:40:06;;;;;;;;;;;;;;;;;;5069411;28;19970;-66
2024/01/09 06:42:33;;;;;;;;;;;;;;;;;;5069945;28;20379;-67
2024/01/09 06:45:00;;;;;;;;;;;;;;;;;;5070239;28;19936;-66
2024/01/09 06:47:27;;;;;;;;;;;;;;;;;;5067209;28;19924;-67
2024/01/09 06:49:54;;;;;;;;;;;;;;;;;;5069793;28;19925;-66
2024/01/09 06:52:21;;;;;;;;;;;;;;;;;;5068224;28;20379;-66
2024/01/09 06:54:48;;;;;;;;;;;;;;;;;;5073478;28;20376;-67
2024/01/09 06:57:15;;;;;;;;;;;;;;;;;;5074432;28;19931;-66
2024/01/09 06:59:43;;;;;;;;;;;;;;;;;;5074000;28;19978;-67
2024/01/09 07:02:10;;;;;;;;;;;;;;;;;;5072403;28;19928;-67
2024/01/09 07:04:37;;;;;;;;;;;;;;;;;;5071185;28;19970;-67
2024/01/09 07:07:04;;;;;;;;;;;;;;;;;;5072972;28;20353;-66
2024/01/09 07:09:32;;;;;;;;;;;;;;;;;;5074406;28;20018;-66
2024/01/09 07:11:59;;;;;;;;;;;;;;;;;;5072448;28;20009;-67
2024/01/09 07:14:26;;;;;;;;;;;;;;;;;;5075135;28;19933;-66
2024/01/09 07:16:53;;;;;;;;;;;;;;;;;;5074469;28;19924;-67
2024/01/09 07:19:20;;;;;;;;;;;;;;;;;;5074670;28;19974;-65
2024/01/09 07:21:47;;;;;;;;;;;;;;;;;;5073921;28;19924;-66
2024/01/09 07:24:14;;;;;;;;;;;;;;;;;;5073673;28;19928;-67
2024/01/09 07:26:42;;;;;;;;;;;;;;;;;;5074693;28;19931;-67
2024/01/09 07:29:10;;;;;;;;;;;;;;;;;;5072747;28;19929;-66
2024/01/09 07:31:38;;;;;;;;;;;;;;;;;;5073578;22;20541;-66
2024/01/09 07:34:05;;;;;;;;;;;;;;;;;;5071343;28;19954;-65
2024/01/09 07:36:32;;;;;;;;;;;;;;;;;;5045807;28;20004;-65
2024/01/09 07:38:59;;;;;;;;;;;;;;;;;;5051647;28;21653;-66
2024/01/09 07:41:26;;;;;;;;;;;;;;;;;;5049598;28;19978;-66
2024/01/09 07:43:53;;;;;;;;;;;;;;;;;;5052889;28;19925;-65
2024/01/09 07:46:21;;;;;;;;;;;;;;;;;;5050037;28;19964;-66
2024/01/09 07:48:48;;;;;;;;;;;;;;;;;;5039142;28;19925;-66
2024/01/09 07:51:15;;;;;;;;;;;;;;;;;;5045971;28;20339;-66
2024/01/09 07:53:43;;;;;;;;;;;;;;;;;;5035451;28;19933;-65
2024/01/09 07:56:10;;;;;;;;;;;;;;;;;;5041154;28;19951;-65
2024/01/09 07:58:37;;;;;;;;;;;;;;;;;;5046871;28;20403;-66
2024/01/09 08:01:05;;;;;;;;;;;;;;;;;;5044359;28;19929;-66
2024/01/09 08:03:32;;;;;;;;;;;;;;;;;;5042485;28;20298;-65
2024/01/09 08:05:59;;;;;;;;;;;;;;;;;;5038941;28;20448;-65
2024/01/09 08:08:26;;;;;;;;;;;;;;;;;;5046734;28;19974;-66
2024/01/09 08:10:53;;;;;;;;;;;;;;;;;;5041283;28;19925;-65
2024/01/09 08:13:20;;;;;;;;;;;;;;;;;;5049850;28;19925;-65
2024/01/09 08:15:47;;;;;;;;;;;;;;;;;;5048088;28;20388;-65
2024/01/09 08:18:14;;;;;;;;;;;;;;;;;;5041749;28;20449;-65
2024/01/09 08:20:44;;;;;;;;;;;;;;;;;;5052484;28;19979;-65
2024/01/09 08:23:12;;;;;;;;;;;;;;;;;;5048624;28;20374;-65
2024/01/09 08:25:39;;;;;;;;;;;;;;;;;;5048176;28;20451;-66
2024/01/09 08:28:06;;;;;;;;;;;;;;;;;;5053169;28;19947;-65
2024/01/09 08:30:33;;;;;;;;;;;;;;;;;;5051218;28;19932;-66
2024/01/09 08:33:00;;;;;;;;;;;;;;;;;;5052767;28;19979;-65
2024/01/09 08:35:27;;;;;;;;;;;;;;;;;;5050140;28;19932;-66
2024/01/09 08:37:54;;;;;;;;;;;;;;;;;;5053983;28;19929;-65
2024/01/09 08:40:21;;;;;;;;;;;;;;;;;;5049043;28;19933;-66
2024/01/09 08:42:48;;;;;;;;;;;;;;;;;;5052643;28;19925;-66
2024/01/09 08:45:15;;;;;;;;;;;;;;;;;;5042582;28;19929;-66
2024/01/09 08:47:43;;;;;;;;;;;;;;;;;;5052649;28;19978;-64
2024/01/09 08:50:10;;;;;;;;;;;;;;;;;;5048009;28;19933;-64
2024/01/09 08:52:37;;;;;;;;;;;;;;;;;;5046606;28;19925;-65
2024/01/09 08:55:04;;;;;;;;;;;;;;;;;;5053137;28;19933;-66
2024/01/09 08:57:31;;;;;;;;;;;;;;;;;;5046082;28;19929;-65
2024/01/09 08:59:58;;;;;;;;;;;;;;;;;;5049363;28;19939;-65
2024/01/09 09:02:26;;;;;;;;;;;;;;;;;;5049383;28;20414;-65
2024/01/09 09:04:53;;;;;;;;;;;;;;;;;;5034772;28;19925;-65
2024/01/09 09:07:20;;;;;;;;;;;;;;;;;;5046218;28;19980;-65
2024/01/09 09:09:47;;;;;;;;;;;;;;;;;;5050510;28;19925;-65
2024/01/09 09:12:14;;;;;;;;;;;;;;;;;;5050002;28;20299;-64
2024/01/09 09:14:41;;;;;;;;;;;;;;;;;;5052169;28;20437;-65
2024/01/09 09:17:10;;;;;;;;;;;;;;;;;;5047660;28;19987;-65
2024/01/09 09:19:37;;;;;;;;;;;;;;;;;;5047844;28;20015;-65
2024/01/09 09:22:04;;;;;;;;;;;;;;;;;;5045792;28;19933;-65
2024/01/09 09:24:33;;;;;;;;;;;;;;;;;;5054113;28;19941;-67
2024/01/09 09:27:00;;;;;;;;;;;;;;;;;;5047543;28;20399;-65
2024/01/09 09:29:27;;;;;;;;;;;;;;;;;;5045435;28;19924;-65
2024/01/09 09:31:54;;;;;;;;;;;;;;;;;;5048797;28;19928;-65
2024/01/09 09:34:21;;;;;;;;;;;;;;;;;;5048162;28;19929;-66
2024/01/09 09:36:48;;;;;;;;;;;;;;;;;;5051423;28;20003;-66
2024/01/09 09:39:15;;;;;;;;;;;;;;;;;;5051257;28;20395;-66
2024/01/09 09:41:43;;;;;;;;;;;;;;;;;;5044540;28;19924;-66
2024/01/09 09:44:10;;;;;;;;;;;;;;;;;;5046179;28;20003;-66
2024/01/09 09:46:37;;;;;;;;;;;;;;;;;;5048819;28;19972;-65
2024/01/09 09:49:04;;;;;;;;;;;;;;;;;;5040554;28;19925;-66
2024/01/09 09:51:31;;;;;;;;;;;;;;;;;;5051582;28;19928;-66
2024/01/09 09:53:58;;;;;;;;;;;;;;;;;;5050432;28;20074;-66
2024/01/09 09:56:25;;;;;;;;;;;;;;;;;;5037612;28;19968;-66
2024/01/09 09:58:52;;;;;;;;;;;;;;;;;;5048528;28;19959;-65
2024/01/09 10:01:19;;;;;;;;;;;;;;;;;;5047074;28;20303;-66
2024/01/09 10:03:46;;;;;;;;;;;;;;;;;;5051586;28;19925;-65
2024/01/09 10:06:13;;;;;;;;;;;;;;;;;;5051615;28;19979;-66
2024/01/09 10:08:41;;;;;;;;;;;;;;;;;;5051265;28;19982;-65
2024/01/09 10:11:08;;;;;;;;;;;;;;;;;;5044882;28;19972;-66
2024/01/09 10:13:35;;;;;;;;;;;;;;;;;;5045723;28;19925;-65
2024/01/09 10:16:02;;;;;;;;;;;;;;;;;;5046709;28;19994;-66
2024/01/09 10:18:30;;;;;;;;;;;;;;;;;;5043633;28;19925;-66
2024/01/09 10:20:57;;;;;;;;;;;;;;;;;;5058705;28;19925;-66
2024/01/09 10:23:24;;;;;;;;;;;;;;;;;;5049571;28;20014;-66
2024/01/09 10:25:51;;;;;;;;;;;;;;;;;;5048217;28;19972;-66
2024/01/09 10:28:18;;;;;;;;;;;;;;;;;;5045259;28;19929;-66
2024/01/09 10:30:46;;;;;;;;;;;;;;;;;;5046030;28;19983;-65
2024/01/09 10:33:13;;;;;;;;;;;;;;;;;;5047573;28;19987;-65
2024/01/09 10:35:40;;;;;;;;;;;;;;;;;;5045715;28;20391;-65
2024/01/09 10:38:08;;;;;;;;;;;;;;;;;;5038096;28;19925;-65
2024/01/09 10:40:36;;;;;;;;;;;;;;;;;;5051685;28;19925;-65
2024/01/09 10:43:03;;;;;;;;;;;;;;;;;;5050704;28;19924;-65
2024/01/09 10:45:30;;;;;;;;;;;;;;;;;;5052153;28;19925;-65
2024/01/09 10:47:57;;;;;;;;;;;;;;;;;;5039279;28;19987;-65
2024/01/09 10:50:24;;;;;;;;;;;;;;;;;;5044413;28;19925;-65
2024/01/09 10:52:51;;;;;;;;;;;;;;;;;;5040213;28;19933;-65
2024/01/09 10:55:19;;;;;;;;;;;;;;;;;;5042249;28;19925;-65
2024/01/09 10:57:47;;;;;;;;;;;;;;;;;;5033598;28;19933;-65
2024/01/09 11:00:14;;;;;;;;;;;;;;;;;;5048756;28;20406;-65
2024/01/09 11:02:41;;;;;;;;;;;;;;;;;;5046046;28;20019;-65
2024/01/09 11:05:10;;;;;;;;;;;;;;;;;;5043188;28;19933;-65
2024/01/09 11:07:37;;;;;;;;;;;;;;;;;;5046581;28;19948;-65
2024/01/09 11:10:06;;;;;;;;;;;;;;;;;;5055433;28;19929;-65
2024/01/09 11:12:33;;;;;;;;;;;;;;;;;;5045468;28;20023;-65
2024/01/09 11:15:00;;;;;;;;;;;;;;;;;;5046923;28;19924;-65
2024/01/09 11:17:27;;;;;;;;;;;;;;;;;;5043243;28;19935;-65
2024/01/09 11:19:54;;;;;;;;;;;;;;;;;;5041334;28;19986;-65
2024/01/09 11:22:21;;;;;;;;;;;;;;;;;;5032739;28;19932;-65
2024/01/09 11:24:48;;;;;;;;;;;;;;;;;;5038997;28;20300;-65
2024/01/09 11:27:17;;;;;;;;;;;;;;;;;;5046504;28;19931;-65
2024/01/09 11:29:44;;;;;;;;;;;;;;;;;;5039388;28;19971;-65
2024/01/09 11:32:11;;;;;;;;;;;;;;;;;;5038668;28;19932;-65
2024/01/09 11:34:41;;;;;;;;;;;;;;;;;;5039787;28;20407;-65
2024/01/09 11:37:08;;;;;;;;;;;;;;;;;;5033885;28;19933;-66
2024/01/09 11:39:35;;;;;;;;;;;;;;;;;;5051160;28;19947;-65
2024/01/09 11:42:02;;;;;;;;;;;;;;;;;;5054799;28;19929;-66
2024/01/09 11:44:29;;;;;;;;;;;;;;;;;;5040075;28;19990;-65
2024/01/09 11:46:56;;;;;;;;;;;;;;;;;;5049500;28;19925;-66
2024/01/09 11:49:23;;;;;;;;;;;;;;;;;;5053518;28;19929;-65
2024/01/09 11:51:50;;;;;;;;;;;;;;;;;;5052288;28;19925;-65
2024/01/09 11:54:17;;;;;;;;;;;;;;;;;;5051940;28;19995;-65
2024/01/09 11:56:44;;;;;;;;;;;;;;;;;;5043206;28;19979;-65
2024/01/09 11:59:11;;;;;;;;;;;;;;;;;;5054797;28;20480;-65
2024/01/09 12:01:39;;;;;;;;;;;;;;;;;;5049752;28;20002;-65
2024/01/09 12:04:06;;;;;;;;;;;;;;;;;;5041362;28;19924;-65
2024/01/09 12:06:33;;;;;;;;;;;;;;;;;;5049357;28;19936;-65
2024/01/09 12:09:00;;;;;;;;;;;;;;;;;;5047951;28;20399;-66
2024/01/09 12:11:27;;;;;;;;;;;;;;;;;;5042736;28;19954;-65
2024/01/09 12:13:54;;;;;;;;;;;;;;;;;;5038378;28;19925;-65
2024/01/09 12:16:22;;;;;;;;;;;;;;;;;;5038943;28;19929;-63
2024/01/09 12:18:50;;;;;;;;;;;;;;;;;;5036269;28;19929;-63
2024/01/09 12:21:17;;;;;;;;;;;;;;;;;;5037759;28;19939;-66
2024/01/09 12:23:44;;;;;;;;;;;;;;;;;;5043126;28;19978;-66
2024/01/09 12:26:11;;;;;;;;;;;;;;;;;;5040682;28;19972;-66
2024/01/09 12:28:38;;;;;;;;;;;;;;;;;;5050154;28;19973;-65
2024/01/09 12:31:05;;;;;;;;;;;;;;;;;;5045636;28;20341;-65
2024/01/09 12:33:33;;;;;;;;;;;;;;;;;;5040229;28;20450;-66
2024/01/09 12:36:00;;;;;;;;;;;;;;;;;;5051807;28;19925;-64
2024/01/09 12:38:27;;;;;;;;;;;;;;;;;;5045216;28;20429;-65
2024/01/09 12:40:54;;;;;;;;;;;;;;;;;;5040706;28;19979;-65
2024/01/09 12:43:21;;;;;;;;;;;;;;;;;;5038450;28;19979;-65
2024/01/09 12:45:49;;;;;;;;;;;;;;;;;;5037037;28;20372;-65
2024/01/09 12:48:16;;;;;;;;;;;;;;;;;;5047883;28;19941;-64
2024/01/09 12:50:43;;;;;;;;;;;;;;;;;;5039725;28;19925;-65
2024/01/09 12:53:10;;;;;;;;;;;;;;;;;;5052134;28;19925;-65
2024/01/09 12:55:38;;;;;;;;;;;;;;;;;;5048840;28;20007;-65
2024/01/09 12:58:05;;;;;;;;;;;;;;;;;;5042389;28;19928;-65
2024/01/09 13:00:32;;;;;;;;;;;;;;;;;;5046085;28;19978;-63
2024/01/09 13:02:59;;;;;;;;;;;;;;;;;;5039445;28;19983;-65
2024/01/09 13:05:26;;;;;;;;;;;;;;;;;;5037772;28;20391;-65
2024/01/09 13:07:53;;;;;;;;;;;;;;;;;;5048604;28;19939;-64
2024/01/09 13:10:20;;;;;;;;;;;;;;;;;;5051827;28;19925;-64
2024/01/09 13:12:47;;;;;;;;;;;;;;;;;;5050029;28;19970;-64
2024/01/09 13:15:14;;;;;;;;;;;;;;;;;;5051115;28;19933;-64
2024/01/09 13:17:41;;;;;;;;;;;;;;;;;;5051592;28;19998;-64
2024/01/09 13:20:09;;;;;;;;;;;;;;;;;;5049610;28;20392;-64
2024/01/09 13:22:36;;;;;;;;;;;;;;;;;;5047115;28;19952;-64
2024/01/09 13:25:04;;;;;;;;;;;;;;;;;;5044423;28;19972;-64
2024/01/09 13:27:31;;;;;;;;;;;;;;;;;;5048081;28;19935;-64
2024/01/09 13:29:58;;;;;;;;;;;;;;;;;;5049656;28;20018;-64
2024/01/09 13:32:26;;;;;;;;;;;;;;;;;;5049453;28;19925;-64
2024/01/09 13:34:55;;;;;;;;;;;;;;;;;;5042733;28;20020;-64
2024/01/09 13:37:23;;;;;;;;;;;;;;;;;;5044703;28;20364;-64
2024/01/09 13:39:50;;;;;;;;;;;;;;;;;;5041598;28;19925;-64
2024/01/09 13:42:17;;;;;;;;;;;;;;;;;;5040108;28;19961;-64
2024/01/09 13:44:44;;;;;;;;;;;;;;;;;;5042769;28;20025;-64
2024/01/09 13:47:11;;;;;;;;;;;;;;;;;;5040720;28;19925;-64
2024/01/09 13:49:38;;;;;;;;;;;;;;;;;;5042788;28;19929;-64
2024/01/09 13:52:05;;;;;;;;;;;;;;;;;;5029278;28;19940;-64
2024/01/09 13:54:32;;;;;;;;;;;;;;;;;;5031669;28;19925;-64
2024/01/09 13:57:00;;;;;;;;;;;;;;;;;;5036626;28;19982;-64
2024/01/09 13:59:28;;;;;;;;;;;;;;;;;;5043756;28;19925;-64
2024/01/09 14:01:55;;;;;;;;;;;;;;;;;;5039805;28;19975;-64
2024/01/09 14:04:22;;;;;;;;;;;;;;;;;;5041856;28;19986;-64
2024/01/09 14:06:49;;;;;;;;;;;;;;;;;;5045582;28;19994;-64
2024/01/09 14:09:16;;;;;;;;;;;;;;;;;;5048266;28;19928;-64
2024/01/09 14:11:43;;;;;;;;;;;;;;;;;;5048028;28;19932;-65
2024/01/09 14:14:10;;;;;;;;;;;;;;;;;;5041487;28;19929;-64
2024/01/09 14:16:37;;;;;;;;;;;;;;;;;;5045862;28;19971;-64
2024/01/09 14:19:05;;;;;;;;;;;;;;;;;;5038473;28;19933;-65
2024/01/09 14:21:32;;;;;;;;;;;;;;;;;;5049554;28;20360;-65
2024/01/09 14:23:59;;;;;;;;;;;;;;;;;;5042486;28;20681;-65
2024/01/09 14:26:26;;;;;;;;;;;;;;;;;;5039512;28;19990;-64
2024/01/09 14:28:58;;;;;;;;;;;;;;;;;;5075917;22;21839;-64
2024/01/09 14:31:25;;;;;;;;;;;;;;;;;;5001287;28;22081;-64
2024/01/09 14:33:52;;;;;;;;;;;;;;;;;;4993866;28;19955;-64
2024/01/09 14:36:19;;;;;;;;;;;;;;;;;;4978960;28;19926;-64
2024/01/09 14:38:46;;;;;;;;;;;;;;;;;;4987419;28;19980;-64
2024/01/09 14:41:13;;;;;;;;;;;;;;;;;;4987640;28;19980;-64
2024/01/09 14:43:40;;;;;;;;;;;;;;;;;;4989064;28;19926;-65
2024/01/09 14:46:07;;;;;;;;;;;;;;;;;;4992007;28;20000;-64
2024/01/09 14:48:34;;;;;;;;;;;;;;;;;;4992139;28;19926;-64
2024/01/09 14:51:01;;;;;;;;;;;;;;;;;;4987189;28;19941;-63
2024/01/09 14:53:29;;;;;;;;;;;;;;;;;;4988274;28;20396;-63
2024/01/09 14:55:56;;;;;;;;;;;;;;;;;;4984885;28;20281;-65
2024/01/09 14:58:23;;;;;;;;;;;;;;;;;;4975915;28;19926;-68
2024/01/09 15:00:53;;;;;;;;;;;;;;;;;;4980448;28;19969;-65
2024/01/09 15:03:21;;;;;;;;;;;;;;;;;;4983120;28;19950;-65
2024/01/09 15:05:48;;;;;;;;;;;;;;;;;;4969928;28;19926;-65
2024/01/09 15:08:15;;;;;;;;;;;;;;;;;;4983442;28;19981;-64
2024/01/09 15:10:42;;;;;;;;;;;;;;;;;;4983930;28;20340;-65
2024/01/09 15:13:10;;;;;;;;;;;;;;;;;;4986646;28;19932;-65
2024/01/09 15:15:37;;;;;;;;;;;;;;;;;;4992239;28;19956;-65
2024/01/09 15:18:04;;;;;;;;;;;;;;;;;;4988595;28;19926;-67
2024/01/09 15:20:31;;;;;;;;;;;;;;;;;;4994851;28;19936;-66
2024/01/09 15:22:58;;;;;;;;;;;;;;;;;;4990461;28;19933;-64
2024/01/09 15:25:26;;;;;;;;;;;;;;;;;;4986996;28;20081;-65
2024/01/09 15:27:53;;;;;;;;;;;;;;;;;;4993593;28;20437;-65
2024/01/09 15:30:20;;;;;;;;;;;;;;;;;;4988295;28;19926;-65
2024/01/09 15:32:47;;;;;;;;;;;;;;;;;;4981186;28;20795;-66
2024/01/09 15:35:14;;;;;;;;;;;;;;;;;;4993662;28;19926;-66
2024/01/09 15:37:41;;;;;;;;;;;;;;;;;;4988275;28;19934;-65
2024/01/09 15:40:12;;;;;;;;;;;;;;;;;;4988737;28;19953;-67
2024/01/09 15:42:40;;;;;;;;;;;;;;;;;;4987041;28;19926;-65
2024/01/09 15:45:07;;;;;;;;;;;;;;;;;;4994924;28;20045;-65
2024/01/09 15:47:34;;;;;;;;;;;;;;;;;;4992783;28;20003;-65
2024/01/09 15:50:01;;;;;;;;;;;;;;;;;;4987566;28;19936;-66
2024/01/09 15:52:31;;;;;;;;;;;;;;;;;;4985081;28;19927;-65
2024/01/09 15:54:58;;;;;;;;;;;;;;;;;;4986296;28;20010;-64
2024/01/09 15:57:25;;;;;;;;;;;;;;;;;;4991610;28;19926;-65
2024/01/09 15:59:52;;;;;;;;;;;;;;;;;;4994843;28;19972;-67
2024/01/09 16:02:20;;;;;;;;;;;;;;;;;;4993120;28;19930;-65
2024/01/09 16:04:47;;;;;;;;;;;;;;;;;;4986055;28;20697;-65
2024/01/09 16:07:15;;;;;;;;;;;;;;;;;;4987007;28;20002;-65
2024/01/09 16:09:42;;;;;;;;;;;;;;;;;;4991443;28;19926;-65
2024/01/09 16:12:09;;;;;;;;;;;;;;;;;;4984815;28;19933;-65
2024/01/09 16:14:36;;;;;;;;;;;;;;;;;;4988535;28;19933;-67
2024/01/09 16:17:04;;;;;;;;;;;;;;;;;;4979596;28;19969;-65
2024/01/09 16:19:31;;;;;;;;;;;;;;;;;;4990783;28;19929;-65
2024/01/09 16:21:59;;;;;;;;;;;;;;;;;;4980910;28;20029;-66
2024/01/09 16:24:27;;;;;;;;;;;;;;;;;;4990531;28;19932;-65
2024/01/09 16:26:54;;;;;;;;;;;;;;;;;;4988927;28;20020;-67
2024/01/09 16:29:21;;;;;;;;;;;;;;;;;;4986620;28;20548;-66
2024/01/09 16:31:48;;;;;;;;;;;;;;;;;;4979531;28;19934;-65
2024/01/09 16:34:15;;;;;;;;;;;;;;;;;;4981514;28;19926;-65
2024/01/09 16:36:42;;;;;;;;;;;;;;;;;;4991577;28;19972;-66
2024/01/09 16:39:09;;;;;;;;;;;;;;;;;;4991463;28;19934;-65
2024/01/09 16:41:36;;;;;;;;;;;;;;;;;;4990268;28;20385;-65
2024/01/09 16:44:04;;;;;;;;;;;;;;;;;;4993432;28;19925;-68